sensor_id;sensor_type;location;lat;lon;timestamp;P1;durP1;ratioP1;P2;durP2;ratioP2
53710;SDS011;39605;52.704;6.752;2023-05-07T00:01:12;9.38;;;8.55;;
53710;SDS011;39605;52.704;6.752;2023-05-07T00:03:38;10.25;;;9.40;;
53710;SDS011;39605;52.704;6.752;2023-05-07T00:06:04;12.35;;;9.98;;
53710;SDS011;39605;52.704;6.752;2023-05-07T00:08:30;9.77;;;9.15;;
53710;SDS011;39605;52.704;6.752;2023-05-07T00:10:56;10.25;;;9.27;;
53710;SDS011;39605;52.704;6.752;2023-05-07T00:13:22;9.57;;;8.77;;
53710;SDS011;39605;52.704;6.752;2023-05-07T00:15:48;10.27;;;9.43;;
53710;SDS011;39605;52.704;6.752;2023-05-07T00:18:15;10.38;;;9.25;;
53710;SDS011;39605;52.704;6.752;2023-05-07T00:20:41;10.60;;;9.52;;
53710;SDS011;39605;52.704;6.752;2023-05-07T00:23:07;9.57;;;8.70;;
53710;SDS011;39605;52.704;6.752;2023-05-07T00:25:33;9.98;;;8.95;;
53710;SDS011;39605;52.704;6.752;2023-05-07T00:27:59;9.77;;;8.93;;
53710;SDS011;39605;52.704;6.752;2023-05-07T00:30:28;10.18;;;9.38;;
53710;SDS011;39605;52.704;6.752;2023-05-07T00:32:54;10.75;;;9.68;;
53710;SDS011;39605;52.704;6.752;2023-05-07T00:35:20;11.68;;;10.48;;
53710;SDS011;39605;52.704;6.752;2023-05-07T00:37:46;10.63;;;9.70;;
53710;SDS011;39605;52.704;6.752;2023-05-07T00:40:14;12.48;;;11.02;;
53710;SDS011;39605;52.704;6.752;2023-05-07T00:42:40;12.65;;;11.63;;
53710;SDS011;39605;52.704;6.752;2023-05-07T00:45:06;12.80;;;11.90;;
53710;SDS011;39605;52.704;6.752;2023-05-07T00:47:32;15.10;;;13.63;;
53710;SDS011;39605;52.704;6.752;2023-05-07T00:49:58;14.52;;;13.13;;
53710;SDS011;39605;52.704;6.752;2023-05-07T00:52:25;15.43;;;13.93;;
53710;SDS011;39605;52.704;6.752;2023-05-07T00:54:51;15.90;;;14.45;;
53710;SDS011;39605;52.704;6.752;2023-05-07T00:57:17;15.38;;;13.98;;
53710;SDS011;39605;52.704;6.752;2023-05-07T00:59:45;15.20;;;14.00;;
53710;SDS011;39605;52.704;6.752;2023-05-07T01:02:11;17.40;;;15.82;;
53710;SDS011;39605;52.704;6.752;2023-05-07T01:04:37;17.08;;;15.63;;
53710;SDS011;39605;52.704;6.752;2023-05-07T01:07:03;17.00;;;15.40;;
53710;SDS011;39605;52.704;6.752;2023-05-07T01:09:29;17.58;;;16.10;;
53710;SDS011;39605;52.704;6.752;2023-05-07T01:11:56;18.48;;;15.82;;
53710;SDS011;39605;52.704;6.752;2023-05-07T01:14:22;18.58;;;16.98;;
53710;SDS011;39605;52.704;6.752;2023-05-07T01:16:49;18.25;;;16.75;;
53710;SDS011;39605;52.704;6.752;2023-05-07T01:19:17;18.73;;;17.15;;
53710;SDS011;39605;52.704;6.752;2023-05-07T01:21:47;19.02;;;17.15;;
53710;SDS011;39605;52.704;6.752;2023-05-07T01:24:14;18.08;;;16.58;;
53710;SDS011;39605;52.704;6.752;2023-05-07T01:26:41;19.05;;;17.50;;
53710;SDS011;39605;52.704;6.752;2023-05-07T01:29:07;17.23;;;15.93;;
53710;SDS011;39605;52.704;6.752;2023-05-07T01:31:33;18.92;;;17.27;;
53710;SDS011;39605;52.704;6.752;2023-05-07T01:34:00;18.50;;;16.92;;
53710;SDS011;39605;52.704;6.752;2023-05-07T01:36:27;18.60;;;17.00;;
53710;SDS011;39605;52.704;6.752;2023-05-07T01:38:55;18.65;;;16.58;;
53710;SDS011;39605;52.704;6.752;2023-05-07T01:41:22;19.88;;;18.15;;
53710;SDS011;39605;52.704;6.752;2023-05-07T01:43:49;19.65;;;17.95;;
53710;SDS011;39605;52.704;6.752;2023-05-07T01:46:16;18.50;;;17.08;;
53710;SDS011;39605;52.704;6.752;2023-05-07T01:48:43;20.23;;;18.52;;
53710;SDS011;39605;52.704;6.752;2023-05-07T01:51:11;19.95;;;18.15;;
53710;SDS011;39605;52.704;6.752;2023-05-07T01:53:37;19.42;;;17.83;;
53710;SDS011;39605;52.704;6.752;2023-05-07T01:56:04;19.08;;;17.38;;
53710;SDS011;39605;52.704;6.752;2023-05-07T01:58:30;20.35;;;18.67;;
53710;SDS011;39605;52.704;6.752;2023-05-07T02:00:56;20.67;;;18.90;;
53710;SDS011;39605;52.704;6.752;2023-05-07T02:03:22;21.27;;;19.33;;
53710;SDS011;39605;52.704;6.752;2023-05-07T02:05:48;20.38;;;18.67;;
53710;SDS011;39605;52.704;6.752;2023-05-07T02:08:14;20.73;;;18.88;;
53710;SDS011;39605;52.704;6.752;2023-05-07T02:10:40;22.17;;;20.10;;
53710;SDS011;39605;52.704;6.752;2023-05-07T02:13:06;22.65;;;20.65;;
53710;SDS011;39605;52.704;6.752;2023-05-07T02:15:32;23.20;;;21.00;;
53710;SDS011;39605;52.704;6.752;2023-05-07T02:17:59;21.52;;;19.58;;
53710;SDS011;39605;52.704;6.752;2023-05-07T02:20:26;23.40;;;21.30;;
53710;SDS011;39605;52.704;6.752;2023-05-07T02:22:52;24.90;;;22.60;;
53710;SDS011;39605;52.704;6.752;2023-05-07T02:25:18;22.33;;;20.33;;
53710;SDS011;39605;52.704;6.752;2023-05-07T02:27:44;24.27;;;21.92;;
53710;SDS011;39605;52.704;6.752;2023-05-07T02:30:10;24.17;;;22.17;;
53710;SDS011;39605;52.704;6.752;2023-05-07T02:32:37;24.63;;;22.30;;
53710;SDS011;39605;52.704;6.752;2023-05-07T02:35:03;23.85;;;21.85;;
53710;SDS011;39605;52.704;6.752;2023-05-07T02:37:29;23.30;;;21.20;;
53710;SDS011;39605;52.704;6.752;2023-05-07T02:39:55;25.00;;;22.45;;
53710;SDS011;39605;52.704;6.752;2023-05-07T02:42:21;24.33;;;22.17;;
53710;SDS011;39605;52.704;6.752;2023-05-07T02:44:47;26.05;;;23.70;;
53710;SDS011;39605;52.704;6.752;2023-05-07T02:47:14;27.38;;;24.98;;
53710;SDS011;39605;52.704;6.752;2023-05-07T02:49:40;27.52;;;24.92;;
53710;SDS011;39605;52.704;6.752;2023-05-07T02:52:07;28.08;;;25.23;;
53710;SDS011;39605;52.704;6.752;2023-05-07T02:54:33;27.42;;;24.77;;
53710;SDS011;39605;52.704;6.752;2023-05-07T02:56:59;27.50;;;25.00;;
53710;SDS011;39605;52.704;6.752;2023-05-07T02:59:26;28.08;;;25.20;;
53710;SDS011;39605;52.704;6.752;2023-05-07T03:01:52;29.65;;;26.70;;
53710;SDS011;39605;52.704;6.752;2023-05-07T03:04:18;29.67;;;27.00;;
53710;SDS011;39605;52.704;6.752;2023-05-07T03:06:44;30.50;;;27.50;;
53710;SDS011;39605;52.704;6.752;2023-05-07T03:09:10;30.33;;;27.40;;
53710;SDS011;39605;52.704;6.752;2023-05-07T03:11:37;30.02;;;27.23;;
53710;SDS011;39605;52.704;6.752;2023-05-07T03:14:03;29.73;;;26.80;;
53710;SDS011;39605;52.704;6.752;2023-05-07T03:16:29;32.35;;;29.05;;
53710;SDS011;39605;52.704;6.752;2023-05-07T03:18:55;32.42;;;29.35;;
53710;SDS011;39605;52.704;6.752;2023-05-07T03:21:21;32.95;;;29.67;;
53710;SDS011;39605;52.704;6.752;2023-05-07T03:23:47;30.95;;;28.05;;
53710;SDS011;39605;52.704;6.752;2023-05-07T03:26:13;34.08;;;30.52;;
53710;SDS011;39605;52.704;6.752;2023-05-07T03:28:39;34.20;;;30.80;;
53710;SDS011;39605;52.704;6.752;2023-05-07T03:31:05;33.78;;;30.50;;
53710;SDS011;39605;52.704;6.752;2023-05-07T03:33:32;33.80;;;30.48;;
53710;SDS011;39605;52.704;6.752;2023-05-07T03:35:59;36.53;;;32.92;;
53710;SDS011;39605;52.704;6.752;2023-05-07T03:38:25;33.55;;;30.30;;
53710;SDS011;39605;52.704;6.752;2023-05-07T03:40:51;34.55;;;31.15;;
53710;SDS011;39605;52.704;6.752;2023-05-07T03:43:17;34.95;;;31.55;;
53710;SDS011;39605;52.704;6.752;2023-05-07T03:45:43;34.22;;;30.83;;
53710;SDS011;39605;52.704;6.752;2023-05-07T03:48:09;34.88;;;31.63;;
53710;SDS011;39605;52.704;6.752;2023-05-07T03:50:35;35.33;;;31.88;;
53710;SDS011;39605;52.704;6.752;2023-05-07T03:53:01;36.10;;;32.53;;
53710;SDS011;39605;52.704;6.752;2023-05-07T03:55:27;34.08;;;30.63;;
53710;SDS011;39605;52.704;6.752;2023-05-07T03:57:54;35.08;;;31.52;;
53710;SDS011;39605;52.704;6.752;2023-05-07T04:00:21;34.15;;;31.05;;
53710;SDS011;39605;52.704;6.752;2023-05-07T04:02:47;35.95;;;32.58;;
53710;SDS011;39605;52.704;6.752;2023-05-07T04:05:14;35.40;;;31.98;;
53710;SDS011;39605;52.704;6.752;2023-05-07T04:07:40;36.13;;;32.60;;
53710;SDS011;39605;52.704;6.752;2023-05-07T04:10:06;35.20;;;31.92;;
53710;SDS011;39605;52.704;6.752;2023-05-07T04:12:33;35.70;;;32.08;;
53710;SDS011;39605;52.704;6.752;2023-05-07T04:14:59;33.10;;;30.02;;
53710;SDS011;39605;52.704;6.752;2023-05-07T04:17:25;34.20;;;30.83;;
53710;SDS011;39605;52.704;6.752;2023-05-07T04:19:51;33.42;;;30.27;;
53710;SDS011;39605;52.704;6.752;2023-05-07T04:22:17;34.35;;;31.13;;
53710;SDS011;39605;52.704;6.752;2023-05-07T04:24:43;33.25;;;30.15;;
53710;SDS011;39605;52.704;6.752;2023-05-07T04:27:09;34.22;;;31.02;;
53710;SDS011;39605;52.704;6.752;2023-05-07T04:29:35;34.17;;;30.92;;
53710;SDS011;39605;52.704;6.752;2023-05-07T04:32:01;32.55;;;29.42;;
53710;SDS011;39605;52.704;6.752;2023-05-07T04:34:27;34.33;;;31.13;;
53710;SDS011;39605;52.704;6.752;2023-05-07T04:36:53;31.80;;;28.88;;
53710;SDS011;39605;52.704;6.752;2023-05-07T04:39:20;31.75;;;28.75;;
53710;SDS011;39605;52.704;6.752;2023-05-07T04:41:46;32.58;;;29.30;;
53710;SDS011;39605;52.704;6.752;2023-05-07T04:44:12;31.33;;;28.23;;
53710;SDS011;39605;52.704;6.752;2023-05-07T04:46:38;32.00;;;28.73;;
53710;SDS011;39605;52.704;6.752;2023-05-07T04:49:04;31.75;;;28.63;;
53710;SDS011;39605;52.704;6.752;2023-05-07T04:51:30;31.33;;;28.27;;
53710;SDS011;39605;52.704;6.752;2023-05-07T04:53:57;31.35;;;28.35;;
53710;SDS011;39605;52.704;6.752;2023-05-07T04:56:23;30.08;;;27.42;;
53710;SDS011;39605;52.704;6.752;2023-05-07T04:58:49;28.35;;;25.67;;
53710;SDS011;39605;52.704;6.752;2023-05-07T05:01:16;30.10;;;27.17;;
53710;SDS011;39605;52.704;6.752;2023-05-07T05:03:42;29.63;;;26.83;;
53710;SDS011;39605;52.704;6.752;2023-05-07T05:06:08;29.73;;;26.92;;
53710;SDS011;39605;52.704;6.752;2023-05-07T05:08:34;28.55;;;25.95;;
53710;SDS011;39605;52.704;6.752;2023-05-07T05:11:00;29.42;;;26.60;;
53710;SDS011;39605;52.704;6.752;2023-05-07T05:13:27;27.15;;;24.67;;
53710;SDS011;39605;52.704;6.752;2023-05-07T05:15:53;27.95;;;25.45;;
53710;SDS011;39605;52.704;6.752;2023-05-07T05:18:19;28.40;;;25.65;;
53710;SDS011;39605;52.704;6.752;2023-05-07T05:20:45;27.73;;;25.15;;
53710;SDS011;39605;52.704;6.752;2023-05-07T05:23:12;28.40;;;25.73;;
53710;SDS011;39605;52.704;6.752;2023-05-07T05:25:38;26.85;;;24.45;;
53710;SDS011;39605;52.704;6.752;2023-05-07T05:28:05;27.90;;;25.38;;
53710;SDS011;39605;52.704;6.752;2023-05-07T05:30:31;27.88;;;25.38;;
53710;SDS011;39605;52.704;6.752;2023-05-07T05:32:57;26.95;;;24.45;;
53710;SDS011;39605;52.704;6.752;2023-05-07T05:35:23;26.45;;;24.17;;
53710;SDS011;39605;52.704;6.752;2023-05-07T05:37:49;26.98;;;24.50;;
53710;SDS011;39605;52.704;6.752;2023-05-07T05:40:15;26.70;;;24.17;;
53710;SDS011;39605;52.704;6.752;2023-05-07T05:42:41;26.65;;;24.25;;
53710;SDS011;39605;52.704;6.752;2023-05-07T05:45:08;27.17;;;24.75;;
53710;SDS011;39605;52.704;6.752;2023-05-07T05:47:34;25.45;;;23.05;;
53710;SDS011;39605;52.704;6.752;2023-05-07T05:50:00;26.58;;;24.15;;
53710;SDS011;39605;52.704;6.752;2023-05-07T05:52:26;28.90;;;26.10;;
53710;SDS011;39605;52.704;6.752;2023-05-07T05:54:53;27.90;;;25.10;;
53710;SDS011;39605;52.704;6.752;2023-05-07T05:57:19;27.55;;;25.15;;
53710;SDS011;39605;52.704;6.752;2023-05-07T05:59:45;26.88;;;24.63;;
53710;SDS011;39605;52.704;6.752;2023-05-07T06:02:12;29.70;;;26.88;;
53710;SDS011;39605;52.704;6.752;2023-05-07T06:04:38;28.88;;;26.17;;
53710;SDS011;39605;52.704;6.752;2023-05-07T06:07:04;29.30;;;26.67;;
53710;SDS011;39605;52.704;6.752;2023-05-07T06:09:30;29.33;;;26.52;;
53710;SDS011;39605;52.704;6.752;2023-05-07T06:11:56;29.77;;;27.17;;
53710;SDS011;39605;52.704;6.752;2023-05-07T06:14:22;29.45;;;26.65;;
53710;SDS011;39605;52.704;6.752;2023-05-07T06:16:48;29.08;;;26.42;;
53710;SDS011;39605;52.704;6.752;2023-05-07T06:19:15;30.73;;;28.02;;
53710;SDS011;39605;52.704;6.752;2023-05-07T06:21:43;30.48;;;27.67;;
53710;SDS011;39605;52.704;6.752;2023-05-07T06:24:09;29.08;;;26.40;;
53710;SDS011;39605;52.704;6.752;2023-05-07T06:26:35;31.58;;;28.52;;
53710;SDS011;39605;52.704;6.752;2023-05-07T06:29:01;29.55;;;26.92;;
53710;SDS011;39605;52.704;6.752;2023-05-07T06:31:29;31.08;;;28.17;;
53710;SDS011;39605;52.704;6.752;2023-05-07T06:33:58;29.60;;;27.00;;
53710;SDS011;39605;52.704;6.752;2023-05-07T06:36:24;31.77;;;28.77;;
53710;SDS011;39605;52.704;6.752;2023-05-07T06:38:51;30.67;;;27.77;;
53710;SDS011;39605;52.704;6.752;2023-05-07T06:41:17;30.08;;;27.42;;
53710;SDS011;39605;52.704;6.752;2023-05-07T06:43:43;32.22;;;29.23;;
53710;SDS011;39605;52.704;6.752;2023-05-07T06:46:09;30.27;;;27.55;;
53710;SDS011;39605;52.704;6.752;2023-05-07T06:48:35;29.60;;;26.80;;
53710;SDS011;39605;52.704;6.752;2023-05-07T06:51:01;33.03;;;29.65;;
53710;SDS011;39605;52.704;6.752;2023-05-07T06:53:28;32.63;;;29.52;;
53710;SDS011;39605;52.704;6.752;2023-05-07T06:55:55;30.52;;;27.77;;
53710;SDS011;39605;52.704;6.752;2023-05-07T06:58:22;31.35;;;28.45;;
53710;SDS011;39605;52.704;6.752;2023-05-07T07:00:48;32.30;;;29.40;;
53710;SDS011;39605;52.704;6.752;2023-05-07T07:03:14;30.95;;;28.05;;
53710;SDS011;39605;52.704;6.752;2023-05-07T07:05:41;31.33;;;28.42;;
53710;SDS011;39605;52.704;6.752;2023-05-07T07:08:07;31.67;;;28.88;;
53710;SDS011;39605;52.704;6.752;2023-05-07T07:10:33;32.58;;;29.52;;
53710;SDS011;39605;52.704;6.752;2023-05-07T07:12:59;31.52;;;28.73;;
53710;SDS011;39605;52.704;6.752;2023-05-07T07:15:25;32.20;;;29.10;;
53710;SDS011;39605;52.704;6.752;2023-05-07T07:17:52;31.80;;;28.77;;
53710;SDS011;39605;52.704;6.752;2023-05-07T07:20:18;32.88;;;29.73;;
53710;SDS011;39605;52.704;6.752;2023-05-07T07:22:44;31.67;;;28.58;;
53710;SDS011;39605;52.704;6.752;2023-05-07T07:25:10;32.10;;;28.88;;
53710;SDS011;39605;52.704;6.752;2023-05-07T07:27:37;32.25;;;29.23;;
53710;SDS011;39605;52.704;6.752;2023-05-07T07:30:05;32.15;;;29.15;;
53710;SDS011;39605;52.704;6.752;2023-05-07T07:32:31;32.03;;;29.02;;
53710;SDS011;39605;52.704;6.752;2023-05-07T07:34:58;33.33;;;30.30;;
53710;SDS011;39605;52.704;6.752;2023-05-07T07:37:24;32.72;;;29.55;;
53710;SDS011;39605;52.704;6.752;2023-05-07T07:39:50;32.97;;;29.88;;
53710;SDS011;39605;52.704;6.752;2023-05-07T07:42:16;33.88;;;30.48;;
53710;SDS011;39605;52.704;6.752;2023-05-07T07:44:43;31.75;;;28.85;;
53710;SDS011;39605;52.704;6.752;2023-05-07T07:47:09;31.10;;;28.25;;
53710;SDS011;39605;52.704;6.752;2023-05-07T07:49:35;32.58;;;29.50;;
53710;SDS011;39605;52.704;6.752;2023-05-07T07:52:01;31.67;;;28.70;;
53710;SDS011;39605;52.704;6.752;2023-05-07T07:54:28;33.42;;;30.27;;
53710;SDS011;39605;52.704;6.752;2023-05-07T07:56:54;32.28;;;29.27;;
53710;SDS011;39605;52.704;6.752;2023-05-07T07:59:20;33.13;;;30.02;;
53710;SDS011;39605;52.704;6.752;2023-05-07T08:01:46;32.47;;;29.38;;
53710;SDS011;39605;52.704;6.752;2023-05-07T08:04:15;33.33;;;30.13;;
53710;SDS011;39605;52.704;6.752;2023-05-07T08:06:41;31.90;;;29.00;;
53710;SDS011;39605;52.704;6.752;2023-05-07T08:09:07;32.75;;;29.27;;
53710;SDS011;39605;52.704;6.752;2023-05-07T08:11:33;32.47;;;29.40;;
53710;SDS011;39605;52.704;6.752;2023-05-07T08:13:59;30.88;;;28.08;;
53710;SDS011;39605;52.704;6.752;2023-05-07T08:16:25;32.00;;;29.20;;
53710;SDS011;39605;52.704;6.752;2023-05-07T08:18:52;31.27;;;28.48;;
53710;SDS011;39605;52.704;6.752;2023-05-07T08:21:18;31.88;;;28.90;;
53710;SDS011;39605;52.704;6.752;2023-05-07T08:23:45;29.67;;;26.85;;
53710;SDS011;39605;52.704;6.752;2023-05-07T08:26:11;30.55;;;27.85;;
53710;SDS011;39605;52.704;6.752;2023-05-07T08:28:37;30.20;;;27.45;;
53710;SDS011;39605;52.704;6.752;2023-05-07T08:31:04;27.85;;;25.35;;
53710;SDS011;39605;52.704;6.752;2023-05-07T08:33:30;29.85;;;27.15;;
53710;SDS011;39605;52.704;6.752;2023-05-07T08:35:56;27.17;;;24.67;;
53710;SDS011;39605;52.704;6.752;2023-05-07T08:38:23;28.70;;;26.20;;
53710;SDS011;39605;52.704;6.752;2023-05-07T08:40:49;28.88;;;26.20;;
53710;SDS011;39605;52.704;6.752;2023-05-07T08:43:15;27.92;;;25.40;;
53710;SDS011;39605;52.704;6.752;2023-05-07T08:45:42;25.25;;;22.95;;
53710;SDS011;39605;52.704;6.752;2023-05-07T08:48:14;27.25;;;24.83;;
53710;SDS011;39605;52.704;6.752;2023-05-07T08:50:40;29.73;;;27.10;;
53710;SDS011;39605;52.704;6.752;2023-05-07T08:53:06;27.77;;;25.48;;
53710;SDS011;39605;52.704;6.752;2023-05-07T08:55:32;26.40;;;24.00;;
53710;SDS011;39605;52.704;6.752;2023-05-07T08:57:59;27.27;;;24.80;;
53710;SDS011;39605;52.704;6.752;2023-05-07T09:00:25;26.50;;;24.20;;
53710;SDS011;39605;52.704;6.752;2023-05-07T09:02:52;25.75;;;23.60;;
53710;SDS011;39605;52.704;6.752;2023-05-07T09:05:18;27.88;;;25.38;;
53710;SDS011;39605;52.704;6.752;2023-05-07T09:07:45;26.02;;;23.67;;
53710;SDS011;39605;52.704;6.752;2023-05-07T09:10:11;26.48;;;24.15;;
53710;SDS011;39605;52.704;6.752;2023-05-07T09:12:38;25.58;;;23.45;;
53710;SDS011;39605;52.704;6.752;2023-05-07T09:15:05;26.33;;;24.23;;
53710;SDS011;39605;52.704;6.752;2023-05-07T09:17:31;25.38;;;22.95;;
53710;SDS011;39605;52.704;6.752;2023-05-07T09:20:04;25.52;;;23.42;;
53710;SDS011;39605;52.704;6.752;2023-05-07T09:22:33;26.55;;;24.25;;
53710;SDS011;39605;52.704;6.752;2023-05-07T09:24:59;26.00;;;23.95;;
53710;SDS011;39605;52.704;6.752;2023-05-07T09:27:25;25.70;;;23.45;;
53710;SDS011;39605;52.704;6.752;2023-05-07T09:29:51;25.63;;;23.52;;
53710;SDS011;39605;52.704;6.752;2023-05-07T09:32:18;23.70;;;21.67;;
53710;SDS011;39605;52.704;6.752;2023-05-07T09:34:44;25.15;;;22.92;;
53710;SDS011;39605;52.704;6.752;2023-05-07T09:37:10;25.80;;;23.50;;
53710;SDS011;39605;52.704;6.752;2023-05-07T09:39:38;23.48;;;21.38;;
53710;SDS011;39605;52.704;6.752;2023-05-07T09:42:05;25.83;;;23.65;;
53710;SDS011;39605;52.704;6.752;2023-05-07T09:44:31;24.05;;;22.15;;
53710;SDS011;39605;52.704;6.752;2023-05-07T09:46:57;21.90;;;20.00;;
53710;SDS011;39605;52.704;6.752;2023-05-07T09:49:25;23.05;;;21.25;;
53710;SDS011;39605;52.704;6.752;2023-05-07T09:51:55;24.30;;;22.40;;
53710;SDS011;39605;52.704;6.752;2023-05-07T09:54:24;24.10;;;22.17;;
53710;SDS011;39605;52.704;6.752;2023-05-07T09:56:52;22.85;;;20.65;;
53710;SDS011;39605;52.704;6.752;2023-05-07T09:59:18;23.80;;;21.58;;
53710;SDS011;39605;52.704;6.752;2023-05-07T10:01:46;23.08;;;21.17;;
53710;SDS011;39605;52.704;6.752;2023-05-07T10:04:12;21.80;;;20.05;;
53710;SDS011;39605;52.704;6.752;2023-05-07T10:06:38;22.92;;;21.05;;
53710;SDS011;39605;52.704;6.752;2023-05-07T10:09:05;21.58;;;19.88;;
53710;SDS011;39605;52.704;6.752;2023-05-07T10:11:34;22.02;;;20.17;;
53710;SDS011;39605;52.704;6.752;2023-05-07T10:14:01;20.75;;;19.05;;
53710;SDS011;39605;52.704;6.752;2023-05-07T10:16:34;22.48;;;20.77;;
53710;SDS011;39605;52.704;6.752;2023-05-07T10:19:04;21.25;;;19.58;;
53710;SDS011;39605;52.704;6.752;2023-05-07T10:21:30;21.92;;;20.02;;
53710;SDS011;39605;52.704;6.752;2023-05-07T10:24:03;21.40;;;19.67;;
53710;SDS011;39605;52.704;6.752;2023-05-07T10:26:35;19.73;;;18.23;;
53710;SDS011;39605;52.704;6.752;2023-05-07T10:29:03;20.05;;;18.55;;
53710;SDS011;39605;52.704;6.752;2023-05-07T10:34:18;22.92;;;21.02;;
53710;SDS011;39605;52.704;6.752;2023-05-07T10:36:45;20.45;;;18.75;;
53710;SDS011;39605;52.704;6.752;2023-05-07T10:39:12;19.10;;;17.63;;
53710;SDS011;39605;52.704;6.752;2023-05-07T10:41:38;18.83;;;17.48;;
53710;SDS011;39605;52.704;6.752;2023-05-07T10:44:04;19.65;;;18.05;;
53710;SDS011;39605;52.704;6.752;2023-05-07T10:46:31;19.58;;;18.13;;
53710;SDS011;39605;52.704;6.752;2023-05-07T10:51:27;19.85;;;18.35;;
53710;SDS011;39605;52.704;6.752;2023-05-07T10:56:36;19.38;;;17.90;;
53710;SDS011;39605;52.704;6.752;2023-05-07T11:01:56;19.65;;;18.20;;
53710;SDS011;39605;52.704;6.752;2023-05-07T11:04:23;18.45;;;17.10;;
53710;SDS011;39605;52.704;6.752;2023-05-07T11:15:06;17.08;;;15.80;;
53710;SDS011;39605;52.704;6.752;2023-05-07T11:17:33;17.08;;;15.77;;
53710;SDS011;39605;52.704;6.752;2023-05-07T11:20:00;19.02;;;17.55;;
53710;SDS011;39605;52.704;6.752;2023-05-07T11:25:00;19.20;;;17.80;;
53710;SDS011;39605;52.704;6.752;2023-05-07T11:27:27;19.50;;;18.08;;
53710;SDS011;39605;52.704;6.752;2023-05-07T11:29:53;18.98;;;17.58;;
53710;SDS011;39605;52.704;6.752;2023-05-07T11:32:26;17.38;;;16.08;;
53710;SDS011;39605;52.704;6.752;2023-05-07T11:34:53;17.10;;;15.80;;
53710;SDS011;39605;52.704;6.752;2023-05-07T11:37:20;17.70;;;16.40;;
53710;SDS011;39605;52.704;6.752;2023-05-07T11:39:46;18.95;;;17.50;;
53710;SDS011;39605;52.704;6.752;2023-05-07T11:42:31;16.75;;;15.48;;
53710;SDS011;39605;52.704;6.752;2023-05-07T11:44:58;16.63;;;15.57;;
53710;SDS011;39605;52.704;6.752;2023-05-07T11:47:24;16.85;;;15.73;;
53710;SDS011;39605;52.704;6.752;2023-05-07T11:49:51;16.23;;;15.13;;
53710;SDS011;39605;52.704;6.752;2023-05-07T11:52:18;18.73;;;17.15;;
53710;SDS011;39605;52.704;6.752;2023-05-07T11:57:17;17.60;;;16.40;;
53710;SDS011;39605;52.704;6.752;2023-05-07T11:59:43;16.75;;;15.65;;
53710;SDS011;39605;52.704;6.752;2023-05-07T12:02:10;17.55;;;16.25;;
53710;SDS011;39605;52.704;6.752;2023-05-07T12:04:37;17.58;;;16.17;;
53710;SDS011;39605;52.704;6.752;2023-05-07T12:07:04;18.27;;;16.98;;
53710;SDS011;39605;52.704;6.752;2023-05-07T12:34:19;17.48;;;16.17;;
53710;SDS011;39605;52.704;6.752;2023-05-07T12:36:46;16.85;;;15.65;;
53710;SDS011;39605;52.704;6.752;2023-05-07T12:39:13;16.75;;;15.35;;
53710;SDS011;39605;52.704;6.752;2023-05-07T12:41:53;18.95;;;17.50;;
53710;SDS011;39605;52.704;6.752;2023-05-07T12:44:23;16.38;;;15.18;;
53710;SDS011;39605;52.704;6.752;2023-05-07T12:46:49;17.42;;;16.02;;
53710;SDS011;39605;52.704;6.752;2023-05-07T12:49:15;16.58;;;15.38;;
53710;SDS011;39605;52.704;6.752;2023-05-07T12:51:43;16.40;;;15.18;;
53710;SDS011;39605;52.704;6.752;2023-05-07T12:54:09;16.80;;;15.50;;
53710;SDS011;39605;52.704;6.752;2023-05-07T12:56:35;16.10;;;15.00;;
53710;SDS011;39605;52.704;6.752;2023-05-07T12:59:02;16.25;;;15.07;;
53710;SDS011;39605;52.704;6.752;2023-05-07T13:01:29;17.35;;;16.05;;
53710;SDS011;39605;52.704;6.752;2023-05-07T13:03:56;16.65;;;15.45;;
53710;SDS011;39605;52.704;6.752;2023-05-07T13:06:26;15.68;;;14.57;;
53710;SDS011;39605;52.704;6.752;2023-05-07T13:08:52;16.60;;;15.48;;
53710;SDS011;39605;52.704;6.752;2023-05-07T13:11:18;16.25;;;15.00;;
53710;SDS011;39605;52.704;6.752;2023-05-07T13:13:45;14.82;;;13.75;;
53710;SDS011;39605;52.704;6.752;2023-05-07T13:16:11;14.32;;;13.23;;
53710;SDS011;39605;52.704;6.752;2023-05-07T13:18:38;14.27;;;13.32;;
53710;SDS011;39605;52.704;6.752;2023-05-07T13:21:05;13.57;;;12.75;;
53710;SDS011;39605;52.704;6.752;2023-05-07T13:23:31;13.75;;;12.85;;
53710;SDS011;39605;52.704;6.752;2023-05-07T13:25:57;12.68;;;11.88;;
53710;SDS011;39605;52.704;6.752;2023-05-07T13:28:23;12.55;;;11.75;;
53710;SDS011;39605;52.704;6.752;2023-05-07T13:30:50;13.48;;;12.57;;
53710;SDS011;39605;52.704;6.752;2023-05-07T13:33:17;13.45;;;12.55;;
53710;SDS011;39605;52.704;6.752;2023-05-07T13:35:43;12.45;;;11.65;;
53710;SDS011;39605;52.704;6.752;2023-05-07T13:38:09;11.82;;;11.13;;
53710;SDS011;39605;52.704;6.752;2023-05-07T13:40:35;11.20;;;10.52;;
53710;SDS011;39605;52.704;6.752;2023-05-07T13:43:01;12.05;;;11.35;;
53710;SDS011;39605;52.704;6.752;2023-05-07T13:45:28;11.38;;;10.68;;
53710;SDS011;39605;52.704;6.752;2023-05-07T13:47:55;10.90;;;10.20;;
53710;SDS011;39605;52.704;6.752;2023-05-07T13:50:21;11.00;;;10.30;;
53710;SDS011;39605;52.704;6.752;2023-05-07T13:52:47;10.52;;;9.93;;
53710;SDS011;39605;52.704;6.752;2023-05-07T13:55:19;9.45;;;8.68;;
53710;SDS011;39605;52.704;6.752;2023-05-07T13:57:46;10.10;;;9.40;;
53710;SDS011;39605;52.704;6.752;2023-05-07T14:00:12;10.68;;;10.07;;
53710;SDS011;39605;52.704;6.752;2023-05-07T14:02:39;10.32;;;9.63;;
53710;SDS011;39605;52.704;6.752;2023-05-07T14:05:05;10.40;;;9.75;;
53710;SDS011;39605;52.704;6.752;2023-05-07T14:07:31;10.52;;;9.93;;
53710;SDS011;39605;52.704;6.752;2023-05-07T14:09:57;11.25;;;10.48;;
53710;SDS011;39605;52.704;6.752;2023-05-07T14:12:23;11.10;;;10.50;;
53710;SDS011;39605;52.704;6.752;2023-05-07T14:14:50;10.82;;;10.13;;
53710;SDS011;39605;52.704;6.752;2023-05-07T14:17:16;13.05;;;12.13;;
53710;SDS011;39605;52.704;6.752;2023-05-07T14:19:43;13.13;;;12.02;;
53710;SDS011;39605;52.704;6.752;2023-05-07T14:22:09;12.88;;;11.95;;
53710;SDS011;39605;52.704;6.752;2023-05-07T14:24:35;12.10;;;11.40;;
53710;SDS011;39605;52.704;6.752;2023-05-07T14:27:01;13.07;;;12.20;;
53710;SDS011;39605;52.704;6.752;2023-05-07T14:29:27;12.45;;;11.65;;
53710;SDS011;39605;52.704;6.752;2023-05-07T14:31:53;11.60;;;10.90;;
53710;SDS011;39605;52.704;6.752;2023-05-07T14:34:20;12.50;;;11.65;;
53710;SDS011;39605;52.704;6.752;2023-05-07T14:36:46;12.43;;;11.57;;
53710;SDS011;39605;52.704;6.752;2023-05-07T14:39:12;11.57;;;10.82;;
53710;SDS011;39605;52.704;6.752;2023-05-07T14:41:38;11.63;;;10.90;;
53710;SDS011;39605;52.704;6.752;2023-05-07T14:44:05;11.25;;;10.63;;
53710;SDS011;39605;52.704;6.752;2023-05-07T14:46:31;12.02;;;11.23;;
53710;SDS011;39605;52.704;6.752;2023-05-07T14:48:57;11.27;;;10.57;;
53710;SDS011;39605;52.704;6.752;2023-05-07T14:51:23;10.88;;;10.18;;
53710;SDS011;39605;52.704;6.752;2023-05-07T14:53:50;11.60;;;10.85;;
53710;SDS011;39605;52.704;6.752;2023-05-07T14:56:17;10.95;;;10.15;;
53710;SDS011;39605;52.704;6.752;2023-05-07T14:58:43;10.43;;;9.75;;
53710;SDS011;39605;52.704;6.752;2023-05-07T15:01:09;9.68;;;9.07;;
53710;SDS011;39605;52.704;6.752;2023-05-07T15:03:35;10.00;;;9.30;;
53710;SDS011;39605;52.704;6.752;2023-05-07T15:06:02;9.40;;;8.77;;
53710;SDS011;39605;52.704;6.752;2023-05-07T15:08:28;10.70;;;10.00;;